Clint, Texas
Current Conditions -  °F | °C
As of 8:47 PM on Saturday 25 Oct 2014 (Local Time) from MMCS Reporting Station
Clear Clear  
Wind Chill: 70°   Ceiling: Unl
Heat Index: 70°   Visibility: 10mi
Dew Point: 50°   Wind: 5mph
Humidity: 49%   Direction: 280°W
Pressure: 30.1"   Gusts: NA
Location:  31.59°N, 106.22°W
Report Text: MMCS 260247Z 28004KT 10SM SKC 21/10 A3010 RMK SLP102 54000 974
Loading
Personal Weather Stations






























Interactive Weather Map
Tropical Storm Tracking
New forecast layout! Learn more

10-Day Weather Forecast

Advertisements
Track Severe Weather on mobile